createdAt,value
2022-11-06T00:01:45.626Z,82.66
2022-11-06T00:04:12.477Z,82.50
2022-11-06T00:06:39.297Z,82.16
2022-11-06T00:09:09.410Z,82.18
2022-11-06T00:11:36.395Z,82.54
2022-11-06T00:14:04.095Z,82.75
2022-11-06T00:16:30.972Z,82.29
2022-11-06T00:19:01.489Z,82.79
2022-11-06T00:21:30.634Z,82.74
2022-11-06T00:24:00.444Z,82.69
2022-11-06T00:26:28.787Z,83.11
2022-11-06T00:28:56.155Z,83.24
2022-11-06T00:31:28.935Z,83.62
2022-11-06T00:33:57.716Z,83.64
2022-11-06T00:36:26.322Z,83.87
2022-11-06T00:38:57.426Z,83.62
2022-11-06T00:41:25.560Z,83.79
2022-11-06T00:44:02.830Z,84.11
2022-11-06T00:46:30.466Z,84.26
2022-11-06T00:48:57.316Z,84.45
2022-11-06T00:51:35.318Z,84.54
2022-11-06T00:54:04.632Z,84.39
2022-11-06T00:56:32.272Z,84.83
2022-11-06T00:59:00.755Z,84.84
2022-11-06T01:01:30.735Z,84.77
2022-11-06T01:04:00.379Z,84.92
2022-11-06T01:06:30.232Z,85.24
2022-11-06T01:08:57.511Z,84.98
2022-11-06T01:11:46.570Z,84.76
2022-11-06T01:14:18.633Z,85.14
2022-11-06T01:16:47.721Z,85.28
2022-11-06T01:19:16.522Z,85.62
2022-11-06T01:21:45.601Z,86.02
2022-11-06T01:24:15.696Z,86.19
2022-11-06T01:27:04.875Z,86.11
2022-11-06T01:29:29.960Z,85.99
2022-11-06T01:31:56.803Z,86.22
2022-11-06T01:34:23.624Z,86.45
2022-11-06T01:36:50.505Z,86.60
2022-11-06T01:39:17.334Z,86.65
2022-11-06T01:41:47.884Z,86.92
2022-11-06T01:44:14.623Z,87.03
2022-11-06T01:46:41.524Z,86.72
2022-11-06T01:49:16.145Z,86.88
2022-11-06T01:51:56.365Z,86.87
2022-11-06T01:54:27.827Z,86.85
2022-11-06T01:56:57.516Z,87.00
2022-11-06T01:59:33.142Z,86.66
2022-11-06T02:02:00.044Z,86.97
2022-11-06T02:04:33.889Z,87.26
2022-11-06T02:07:03.267Z,87.45
2022-11-06T02:09:32.389Z,87.59
2022-11-06T02:12:07.377Z,87.64
2022-11-06T02:14:50.945Z,87.61
2022-11-06T02:17:36.277Z,87.88
2022-11-06T02:20:46.618Z,87.79
2022-11-06T02:23:41.009Z,88.24
2022-11-06T02:26:22.910Z,87.87
2022-11-06T02:29:15.939Z,88.10
2022-11-06T02:31:45.339Z,88.01
2022-11-06T02:34:16.702Z,88.00
2022-11-06T02:36:53.613Z,88.18
2022-11-06T02:39:24.431Z,88.37
2022-11-06T02:41:54.538Z,88.19
2022-11-06T02:44:26.848Z,88.46
2022-11-06T02:47:02.718Z,87.86
2022-11-06T02:49:40.094Z,88.58
2022-11-06T02:52:14.066Z,88.40
2022-11-06T02:54:46.244Z,88.08
2022-11-06T02:57:14.993Z,87.98
2022-11-06T03:00:09.482Z,87.76
2022-11-06T03:02:58.640Z,88.07
2022-11-06T03:05:37.199Z,88.00
2022-11-06T03:08:12.282Z,88.51
2022-11-06T03:10:47.558Z,88.72
2022-11-06T03:13:19.584Z,88.56
2022-11-06T03:16:03.144Z,88.75
2022-11-06T03:19:02.304Z,89.12
2022-11-06T03:21:57.256Z,89.17
2022-11-06T03:24:34.135Z,89.32
2022-11-06T03:27:10.254Z,89.29
2022-11-06T03:29:44.534Z,89.43
2022-11-06T03:32:33.153Z,89.92
2022-11-06T03:35:19.193Z,89.85
2022-11-06T03:38:07.385Z,90.27
2022-11-06T03:40:39.282Z,90.73
2022-11-06T03:43:11.159Z,90.74
2022-11-06T03:45:43.270Z,91.11
2022-11-06T03:48:21.067Z,91.44
2022-11-06T03:50:50.488Z,91.46
2022-11-06T03:53:25.344Z,91.75
2022-11-06T03:55:58.079Z,91.76
2022-11-06T03:58:31.272Z,92.01
2022-11-06T04:01:03.702Z,92.22
2022-11-06T04:03:36.280Z,92.40
2022-11-06T04:06:06.978Z,92.36
2022-11-06T04:08:35.198Z,92.53
2022-11-06T04:11:05.568Z,92.57
2022-11-06T04:13:35.756Z,92.63
2022-11-06T04:16:03.638Z,92.90
2022-11-06T04:18:30.540Z,92.78
2022-11-06T04:21:11.926Z,92.92
2022-11-06T04:24:25.743Z,93.10
2022-11-06T04:27:08.233Z,93.16
2022-11-06T04:30:04.940Z,93.26
2022-11-06T04:33:00.809Z,93.40
2022-11-06T04:35:35.266Z,93.44
2022-11-06T04:38:34.433Z,93.58
2022-11-06T04:41:28.508Z,93.20
2022-11-06T04:44:00.260Z,93.21
2022-11-06T04:46:33.788Z,93.28
2022-11-06T04:49:05.539Z,93.06
2022-11-06T04:51:35.977Z,92.72
2022-11-06T04:54:03.149Z,93.05
2022-11-06T04:56:35.066Z,92.94
2022-11-06T04:59:04.060Z,93.42
2022-11-06T05:01:31.342Z,93.42
2022-11-06T05:03:58.465Z,93.48
2022-11-06T05:06:29.601Z,93.23
2022-11-06T05:08:57.801Z,93.11
2022-11-06T05:11:25.088Z,93.02
2022-11-06T05:13:52.075Z,93.10
2022-11-06T05:16:18.960Z,93.10
2022-11-06T05:18:45.787Z,92.85
2022-11-06T05:21:12.600Z,92.71
2022-11-06T05:23:40.612Z,92.81
2022-11-06T05:26:08.240Z,92.82
2022-11-06T05:28:35.250Z,92.71
2022-11-06T05:31:02.090Z,93.14
2022-11-06T05:33:29.017Z,93.38
2022-11-06T05:35:55.882Z,93.45
2022-11-06T05:38:22.765Z,93.63
2022-11-06T05:40:49.564Z,93.53
2022-11-06T05:43:16.350Z,93.72
2022-11-06T05:45:43.137Z,93.35
2022-11-06T05:48:10.817Z,93.16
2022-11-06T05:50:37.809Z,93.69
2022-11-06T05:53:14.862Z,93.66
2022-11-06T05:55:41.636Z,93.54
2022-11-06T05:58:08.512Z,93.82
2022-11-06T06:00:35.216Z,93.91
2022-11-06T06:03:02.499Z,93.73
2022-11-06T06:05:29.668Z,93.76
2022-11-06T06:07:56.537Z,93.85
2022-11-06T06:10:24.159Z,94.02
2022-11-06T06:12:51.182Z,93.88
2022-11-06T06:15:18.287Z,93.59
2022-11-06T06:17:45.126Z,93.97
2022-11-06T06:20:12.404Z,93.99
2022-11-06T06:22:39.436Z,94.18
2022-11-06T06:25:14.690Z,94.38
2022-11-06T06:27:48.433Z,94.52
2022-11-06T06:30:15.179Z,94.76
2022-11-06T06:32:42.108Z,94.68
2022-11-06T06:35:09.380Z,94.92
2022-11-06T06:37:36.628Z,94.77
2022-11-06T06:40:04.370Z,95.09
2022-11-06T06:42:32.307Z,94.66
2022-11-06T06:44:59.063Z,94.72
2022-11-06T06:47:25.896Z,94.77
2022-11-06T06:49:52.639Z,94.93
2022-11-06T06:52:19.362Z,94.49
2022-11-06T06:54:46.078Z,94.23
2022-11-06T06:57:12.876Z,94.09
2022-11-06T06:59:39.592Z,93.60
2022-11-06T07:02:06.515Z,93.53
2022-11-06T07:04:33.374Z,93.25
2022-11-06T07:07:00.145Z,93.24
2022-11-06T07:09:31.039Z,92.93
2022-11-06T07:11:58.525Z,92.37
2022-11-06T07:14:25.423Z,92.06
2022-11-06T07:16:54.011Z,91.53
2022-11-06T07:19:21.163Z,91.52
2022-11-06T07:21:51.563Z,91.38
2022-11-06T07:24:18.584Z,91.30
2022-11-06T07:26:45.334Z,91.22
2022-11-06T07:29:12.194Z,90.92
2022-11-06T07:31:39.066Z,90.22
2022-11-06T07:34:06.707Z,90.39
2022-11-06T07:36:35.769Z,89.84
2022-11-06T07:39:02.941Z,90.55
2022-11-06T07:41:29.688Z,89.72
2022-11-06T07:43:56.387Z,89.90
2022-11-06T07:46:23.186Z,86.64
2022-11-06T07:48:50.058Z,84.37
2022-11-06T07:51:16.997Z,83.63
2022-11-06T07:53:43.817Z,82.10
2022-11-06T07:56:11.419Z,80.85
2022-11-06T07:58:38.378Z,82.09
2022-11-06T08:01:06.147Z,80.68
2022-11-06T08:03:33.008Z,81.19
2022-11-06T08:06:03.166Z,79.97
2022-11-06T08:08:29.930Z,79.86
2022-11-06T08:11:01.049Z,79.39
2022-11-06T08:13:27.854Z,78.85
2022-11-06T08:15:54.858Z,79.18
2022-11-06T08:18:21.631Z,79.38
2022-11-06T08:20:48.904Z,78.92
2022-11-06T08:23:15.691Z,79.01
2022-11-06T08:25:42.557Z,78.64
2022-11-06T08:28:09.420Z,78.63
2022-11-06T08:30:36.342Z,78.00
2022-11-06T08:33:05.893Z,78.00
2022-11-06T08:35:34.722Z,78.29
2022-11-06T08:38:01.565Z,77.52
2022-11-06T08:40:31.198Z,77.47
2022-11-06T08:43:08.164Z,78.09
2022-11-06T08:45:42.205Z,78.09
2022-11-06T08:48:10.101Z,78.21
2022-11-06T08:50:39.117Z,76.94
2022-11-06T08:53:07.113Z,77.50
2022-11-06T08:55:36.443Z,76.90
2022-11-06T08:58:04.200Z,77.37
2022-11-06T09:00:31.544Z,76.75
2022-11-06T09:03:03.742Z,77.04
2022-11-06T09:05:31.743Z,76.89
2022-11-06T09:07:59.516Z,76.22
2022-11-06T09:10:28.209Z,77.08
2022-11-06T09:12:55.010Z,76.31
2022-11-06T09:15:21.919Z,74.33
2022-11-06T09:17:51.103Z,73.43
2022-11-06T09:20:20.968Z,72.54
2022-11-06T09:22:48.166Z,71.62
2022-11-06T09:25:16.352Z,71.73
2022-11-06T09:27:47.458Z,71.41
2022-11-06T09:30:17.612Z,72.60
2022-11-06T09:32:50.140Z,70.94
2022-11-06T09:35:17.109Z,71.03
2022-11-06T09:37:44.526Z,71.98
2022-11-06T09:40:24.955Z,71.06
2022-11-06T09:43:12.423Z,70.67
2022-11-06T09:45:40.310Z,70.48
2022-11-06T09:48:18.132Z,70.11
2022-11-06T09:50:59.873Z,70.29
2022-11-06T09:53:37.963Z,70.90
2022-11-06T09:56:06.688Z,70.67
2022-11-06T09:58:38.236Z,70.37
2022-11-06T10:01:24.630Z,70.51
2022-11-06T10:04:02.571Z,68.72
2022-11-06T10:06:29.962Z,68.54
2022-11-06T10:09:02.181Z,67.88
2022-11-06T10:11:41.307Z,66.37
2022-11-06T10:14:47.975Z,66.54
2022-11-06T10:17:32.604Z,66.46
2022-11-06T10:20:25.402Z,66.24
2022-11-06T10:23:13.206Z,65.39
2022-11-06T10:26:04.026Z,64.77
2022-11-06T10:28:52.726Z,64.51
2022-11-06T10:31:38.618Z,64.84
2022-11-06T10:34:21.027Z,65.31
2022-11-06T10:36:50.645Z,65.23
2022-11-06T10:39:22.627Z,63.56
2022-11-06T10:41:56.520Z,63.90
2022-11-06T10:44:31.888Z,64.05
2022-11-06T10:47:06.751Z,64.22
2022-11-06T10:49:44.996Z,63.87
2022-11-06T10:52:21.170Z,64.11
2022-11-06T10:55:03.051Z,65.00
2022-11-06T10:57:49.718Z,63.22
2022-11-06T11:00:16.950Z,63.47
2022-11-06T11:02:52.000Z,62.76
2022-11-06T11:05:24.619Z,63.74
2022-11-06T11:07:51.899Z,62.58
2022-11-06T11:10:26.409Z,62.36
2022-11-06T11:12:56.000Z,61.61
2022-11-06T11:15:25.895Z,61.36
2022-11-06T11:18:19.777Z,62.95
2022-11-06T11:21:03.923Z,62.08
2022-11-06T11:23:30.988Z,62.12
2022-11-06T11:26:27.001Z,61.57
2022-11-06T11:29:00.498Z,61.35
2022-11-06T11:31:33.366Z,61.21
2022-11-06T11:34:03.557Z,61.33
2022-11-06T11:36:58.660Z,61.70
2022-11-06T11:39:43.717Z,61.90
2022-11-06T11:42:30.956Z,60.41
2022-11-06T11:45:10.314Z,60.18
2022-11-06T11:47:39.292Z,61.81
2022-11-06T11:50:27.797Z,60.97
2022-11-06T11:53:19.620Z,59.97
2022-11-06T11:55:50.030Z,59.89
2022-11-06T11:58:37.904Z,59.67
2022-11-06T12:01:06.186Z,60.54
2022-11-06T12:03:46.699Z,60.34
2022-11-06T12:06:15.891Z,60.12
2022-11-06T12:08:49.770Z,61.05
2022-11-06T12:11:29.751Z,59.76
2022-11-06T12:14:21.890Z,60.05
2022-11-06T12:16:51.718Z,60.51
2022-11-06T12:19:21.495Z,60.47
2022-11-06T12:21:56.233Z,61.12
2022-11-06T12:24:45.921Z,60.43
2022-11-06T12:27:35.059Z,60.10
2022-11-06T12:30:06.515Z,58.38
2022-11-06T12:32:48.811Z,57.71
2022-11-06T12:35:37.607Z,57.40
2022-11-06T12:38:15.543Z,58.55
2022-11-06T12:40:54.498Z,58.56
2022-11-06T12:43:39.671Z,58.71
2022-11-06T12:46:35.070Z,57.99
2022-11-06T12:49:19.095Z,57.39
2022-11-06T12:52:05.087Z,59.26
2022-11-06T12:55:10.243Z,58.58
2022-11-06T12:58:10.837Z,59.00
2022-11-06T13:01:01.905Z,58.54
2022-11-06T13:04:00.702Z,56.74
2022-11-06T13:06:46.758Z,57.34
2022-11-06T13:09:32.003Z,55.75
2022-11-06T13:12:28.994Z,56.34
2022-11-06T13:15:02.187Z,57.96
2022-11-06T13:17:35.647Z,57.43
2022-11-06T13:20:16.728Z,57.10
2022-11-06T13:22:56.273Z,57.01
2022-11-06T13:26:17.184Z,56.20
2022-11-06T13:28:55.802Z,55.98
2022-11-06T13:31:31.254Z,55.37
2022-11-06T13:34:01.902Z,57.49
2022-11-06T13:36:32.358Z,56.83
2022-11-06T13:39:28.959Z,55.12
2022-11-06T13:41:58.112Z,55.74
2022-11-06T13:44:26.439Z,56.18
2022-11-06T13:47:06.617Z,56.44
2022-11-06T13:49:41.124Z,53.41
2022-11-06T13:52:21.799Z,54.90
2022-11-06T13:55:11.075Z,53.69
2022-11-06T13:57:52.997Z,53.31
2022-11-06T14:00:36.280Z,53.05
2022-11-06T14:03:25.295Z,53.46
2022-11-06T14:05:53.586Z,55.02
2022-11-06T14:08:45.780Z,55.85
2022-11-06T14:11:18.158Z,56.27
2022-11-06T14:14:02.770Z,55.74
2022-11-06T14:16:37.336Z,55.63
2022-11-06T14:19:22.500Z,57.27
2022-11-06T14:21:50.390Z,57.13
2022-11-06T14:24:31.050Z,58.23
2022-11-06T14:26:59.332Z,57.98
2022-11-06T14:29:26.542Z,57.06
2022-11-06T14:32:32.212Z,57.28
2022-11-06T14:35:28.657Z,58.54
2022-11-06T14:38:10.714Z,57.68
2022-11-06T14:40:40.234Z,58.79
2022-11-06T14:43:20.592Z,58.07
2022-11-06T14:46:02.198Z,59.13
2022-11-06T14:48:43.427Z,60.18
2022-11-06T14:51:13.599Z,59.68
2022-11-06T14:53:56.313Z,60.46
2022-11-06T14:56:28.972Z,60.92
2022-11-06T14:59:12.566Z,60.83
2022-11-06T15:01:40.648Z,61.11
2022-11-06T15:04:14.527Z,62.09
2022-11-06T15:06:50.825Z,63.16
2022-11-06T15:09:23.999Z,63.15
2022-11-06T15:11:52.558Z,63.46
2022-11-06T15:14:20.027Z,63.62
2022-11-06T15:16:56.051Z,63.52
2022-11-06T15:19:26.994Z,64.24
2022-11-06T15:22:06.061Z,64.41
2022-11-06T15:24:44.760Z,64.86
2022-11-06T15:27:16.359Z,65.34
2022-11-06T15:29:46.177Z,65.30
2022-11-06T15:32:20.207Z,65.89
2022-11-06T15:34:59.961Z,66.46
2022-11-06T15:37:32.823Z,66.66
2022-11-06T15:40:01.853Z,67.44
2022-11-06T15:42:34.823Z,68.06
2022-11-06T15:45:08.141Z,67.69
2022-11-06T15:47:35.890Z,67.46
2022-11-06T15:50:24.939Z,68.36
2022-11-06T15:52:52.272Z,68.40
2022-11-06T15:55:32.957Z,69.05
2022-11-06T15:58:30.806Z,69.21
2022-11-06T16:01:01.288Z,69.03
2022-11-06T16:03:31.644Z,69.48
2022-11-06T16:06:03.176Z,69.69
2022-11-06T16:08:31.778Z,68.96
2022-11-06T16:11:00.519Z,69.42
2022-11-06T16:13:29.339Z,69.80
2022-11-06T16:15:59.577Z,70.76
2022-11-06T16:18:46.494Z,71.00
2022-11-06T16:21:21.507Z,71.26
2022-11-06T16:24:12.719Z,70.52
2022-11-06T16:26:46.451Z,71.55
2022-11-06T16:29:21.513Z,72.24
2022-11-06T16:31:58.899Z,71.85
2022-11-06T16:34:32.662Z,72.18
2022-11-06T16:37:01.623Z,71.59
2022-11-06T16:39:48.756Z,71.87
2022-11-06T16:42:23.082Z,71.39
2022-11-06T16:45:21.274Z,71.88
2022-11-06T16:48:07.087Z,71.57
2022-11-06T16:50:48.895Z,71.80
2022-11-06T16:53:25.507Z,72.94
2022-11-06T16:55:59.648Z,73.18
2022-11-06T16:58:29.357Z,73.16
2022-11-06T17:01:03.470Z,74.58
2022-11-06T17:03:47.837Z,74.34
2022-11-06T17:06:22.951Z,75.12
2022-11-06T17:09:08.803Z,75.16
2022-11-06T17:11:37.862Z,75.33
2022-11-06T17:14:17.802Z,75.57
2022-11-06T17:16:54.561Z,76.40
2022-11-06T17:19:23.522Z,76.19
2022-11-06T17:21:52.275Z,76.68
2022-11-06T17:24:36.897Z,76.22
2022-11-06T17:27:18.396Z,77.80
2022-11-06T17:29:48.027Z,77.66
2022-11-06T17:32:15.177Z,78.77
2022-11-06T17:34:42.896Z,79.10
2022-11-06T17:37:12.005Z,78.92
2022-11-06T17:39:43.679Z,79.02
2022-11-06T17:42:12.144Z,79.52
2022-11-06T17:44:39.616Z,79.57
2022-11-06T17:47:09.307Z,78.85
2022-11-06T17:49:36.628Z,78.94
2022-11-06T17:52:04.688Z,79.08
2022-11-06T17:54:34.439Z,78.75
2022-11-06T17:57:04.570Z,79.09
2022-11-06T17:59:33.776Z,79.99
2022-11-06T18:02:02.240Z,80.22
2022-11-06T18:04:31.159Z,79.30
2022-11-06T18:06:58.898Z,78.30
2022-11-06T18:09:27.288Z,79.19
2022-11-06T18:11:55.830Z,78.53
2022-11-06T18:14:25.942Z,77.61
2022-11-06T18:16:55.435Z,80.30
2022-11-06T18:19:24.782Z,81.37
2022-11-06T18:21:55.342Z,81.10
2022-11-06T18:24:23.405Z,80.76
2022-11-06T18:26:51.168Z,80.61
2022-11-06T18:29:19.054Z,81.26
2022-11-06T18:31:46.467Z,81.34
2022-11-06T18:34:20.472Z,81.09
2022-11-06T18:36:51.943Z,80.69
2022-11-06T18:39:21.371Z,80.68
2022-11-06T18:41:51.290Z,82.24
2022-11-06T18:44:20.362Z,81.12
2022-11-06T18:46:49.947Z,81.51
2022-11-06T18:49:17.730Z,80.86
2022-11-06T18:51:45.207Z,82.50
2022-11-06T18:54:14.761Z,82.60
2022-11-06T18:56:43.022Z,82.46
2022-11-06T18:59:16.793Z,81.78
2022-11-06T19:01:44.626Z,82.69
2022-11-06T19:04:14.862Z,81.69
2022-11-06T19:06:42.651Z,82.78
2022-11-06T19:09:11.422Z,81.68
2022-11-06T19:11:41.013Z,82.60
2022-11-06T19:14:11.513Z,81.92
2022-11-06T19:16:39.597Z,82.55
2022-11-06T19:19:07.365Z,82.78
2022-11-06T19:21:35.301Z,82.64
2022-11-06T19:24:06.134Z,82.76
2022-11-06T19:26:35.780Z,83.09
2022-11-06T19:29:09.938Z,82.55
2022-11-06T19:31:40.430Z,84.59
2022-11-06T19:34:09.520Z,84.04
2022-11-06T19:36:37.537Z,84.43
2022-11-06T19:39:07.710Z,84.44
2022-11-06T19:41:35.667Z,83.47
2022-11-06T19:44:03.487Z,84.34
2022-11-06T19:46:35.965Z,84.83
2022-11-06T19:49:08.842Z,84.18
2022-11-06T19:51:37.248Z,83.45
2022-11-06T19:54:06.979Z,84.55
2022-11-06T19:56:35.856Z,83.63
2022-11-06T19:59:03.640Z,84.61
2022-11-06T20:01:32.211Z,83.60
2022-11-06T20:04:09.524Z,84.51
2022-11-06T20:06:39.366Z,84.94
2022-11-06T20:09:08.547Z,84.09
2022-11-06T20:11:38.191Z,84.04
2022-11-06T20:14:05.385Z,83.48
2022-11-06T20:16:33.893Z,84.46
2022-11-06T20:19:01.806Z,84.17
2022-11-06T20:21:31.579Z,83.19
2022-11-06T20:23:59.232Z,83.33
2022-11-06T20:26:29.656Z,83.67
2022-11-06T20:28:59.623Z,83.17
2022-11-06T20:31:29.275Z,82.65
2022-11-06T20:33:59.672Z,84.46
2022-11-06T20:36:31.324Z,83.93
2022-11-06T20:39:01.174Z,83.99
2022-11-06T20:41:31.054Z,83.08
2022-11-06T20:43:59.092Z,84.02
2022-11-06T20:46:26.827Z,83.00
2022-11-06T20:48:54.253Z,82.93
2022-11-06T20:51:25.577Z,83.68
2022-11-06T20:53:53.524Z,83.48
2022-11-06T20:56:23.375Z,83.40
2022-11-06T20:58:51.335Z,83.25
2022-11-06T21:01:22.687Z,82.83
2022-11-06T21:03:52.047Z,84.22
2022-11-06T21:06:21.090Z,85.20
2022-11-06T21:08:49.128Z,84.27
2022-11-06T21:11:19.984Z,84.15
2022-11-06T21:13:50.137Z,84.54
2022-11-06T21:16:30.297Z,83.93
2022-11-06T21:18:59.614Z,84.88
2022-11-06T21:21:29.971Z,86.45
2022-11-06T21:23:58.026Z,85.28
2022-11-06T21:26:28.081Z,84.82
2022-11-06T21:28:56.349Z,83.88
2022-11-06T21:31:26.367Z,85.09
2022-11-06T21:33:56.248Z,85.55
2022-11-06T21:36:25.821Z,85.82
2022-11-06T21:38:54.032Z,86.24
2022-11-06T21:41:23.137Z,84.39
2022-11-06T21:43:51.268Z,84.99
2022-11-06T21:46:19.489Z,84.61
2022-11-06T21:48:48.871Z,84.25
2022-11-06T21:51:22.442Z,85.24
2022-11-06T21:53:50.392Z,86.65
2022-11-06T21:56:21.030Z,85.66
2022-11-06T21:58:54.894Z,85.86
2022-11-06T22:01:23.206Z,85.63
2022-11-06T22:03:50.944Z,87.78
2022-11-06T22:06:20.423Z,85.77
2022-11-06T22:08:48.616Z,85.69
2022-11-06T22:11:18.353Z,86.24
2022-11-06T22:13:46.153Z,86.39
2022-11-06T22:16:15.804Z,87.11
2022-11-06T22:18:42.750Z,86.65
2022-11-06T22:21:15.109Z,86.39
2022-11-06T22:23:42.734Z,86.69
2022-11-06T22:26:13.041Z,87.75
2022-11-06T22:28:40.333Z,88.52
2022-11-06T22:31:08.706Z,89.81
2022-11-06T22:33:36.485Z,88.93
2022-11-06T22:36:07.820Z,88.06
2022-11-06T22:38:37.098Z,88.64
2022-11-06T22:41:06.007Z,88.00
2022-11-06T22:43:34.682Z,89.42
2022-11-06T22:46:08.103Z,88.95
2022-11-06T22:48:35.478Z,88.64
2022-11-06T22:51:17.694Z,87.70
2022-11-06T22:53:46.080Z,88.03
2022-11-06T22:56:12.954Z,88.36
2022-11-06T22:58:40.546Z,88.53
2022-11-06T23:01:08.910Z,88.07
2022-11-06T23:03:36.501Z,86.78
2022-11-06T23:06:08.276Z,86.70
2022-11-06T23:08:38.846Z,87.28
2022-11-06T23:11:09.138Z,86.63
2022-11-06T23:13:36.649Z,86.90
2022-11-06T23:16:12.593Z,86.69
2022-11-06T23:18:39.920Z,88.89
2022-11-06T23:21:18.733Z,89.25
2022-11-06T23:23:46.327Z,88.24
2022-11-06T23:26:19.892Z,88.48
2022-11-06T23:28:46.902Z,87.53
2022-11-06T23:31:15.399Z,87.39
2022-11-06T23:33:43.788Z,87.56
2022-11-06T23:36:13.092Z,87.18
2022-11-06T23:38:40.871Z,87.23
2022-11-06T23:41:08.793Z,87.91
2022-11-06T23:43:35.666Z,87.39
2022-11-06T23:46:02.912Z,86.15
2022-11-06T23:48:29.747Z,86.67
2022-11-06T23:50:59.923Z,87.71
2022-11-06T23:53:26.754Z,88.76
2022-11-06T23:55:53.931Z,89.56
2022-11-06T23:58:20.751Z,88.13
